This is the latest recevied weather packets stored in our database for station/object PY1LEO-13. If no packets are shown the sender has not sent any weather packets the latest 10 day(s).
| Time | Temp. | Humidity | Pressure | Rain* | Wind** | Luminosity | Snow |
|---|---|---|---|---|---|---|---|
| 1777684262 | 25° C | 80% | 1018.5 hPa | - | - | - | - |
| 1777683962 | 26.11° C | 75% | 1018.6 hPa | - | - | - | - |
| 1777683662 | 26.11° C | 74% | 1018.6 hPa | - | - | - | - |
| 1777683362 | 25.56° C | 75% | 1018.5 hPa | - | - | - | - |
| 1777683062 | 26.11° C | 74% | 1018.5 hPa | - | - | - | - |
| 1777682762 | 26.11° C | 75% | 1018.6 hPa | - | - | - | - |
| 1777682462 | 25.56° C | 76% | 1018.6 hPa | - | - | - | - |
| 1777682162 | 26.11° C | 75% | 1018.6 hPa | - | - | - | - |
| 1777681862 | 26.11° C | 75% | 1018.7 hPa | - | - | - | - |
| 1777681562 | 26.11° C | 75% | 1018.7 hPa | - | - | - | - |
| 1777681262 | 25.56° C | 77% | 1018.6 hPa | - | - | - | - |
| 1777680962 | 25.56° C | 77% | 1018.6 hPa | - | - | - | - |
| 1777680662 | 25.56° C | 76% | 1018.7 hPa | - | - | - | - |
| 1777680362 | 25.56° C | 77% | 1018.7 hPa | - | - | - | - |
| 1777680062 | 26.11° C | 75% | 1018.8 hPa | - | - | - | - |
| 1777679762 | 25.56° C | 77% | 1018.8 hPa | - | - | - | - |
| 1777679462 | 25.56° C | 77% | 1018.8 hPa | - | - | - | - |
| 1777679163 | 25° C | 80% | 1018.8 hPa | - | - | - | - |
| 1777678862 | 25.56° C | 77% | 1018.8 hPa | - | - | - | - |
| 1777678562 | 25.56° C | 78% | 1018.8 hPa | - | - | - | - |
| 1777678262 | 25° C | 80% | 1018.8 hPa | - | - | - | - |
| 1777677962 | 26.11° C | 76% | 1018.8 hPa | - | - | - | - |
| 1777677662 | 25.56° C | 77% | 1018.8 hPa | - | - | - | - |
| 1777677362 | 25.56° C | 78% | 1018.8 hPa | - | - | - | - |
| 1777677062 | 25.56° C | 78% | 1018.7 hPa | - | - | - | - |
* Rain since midnight (hover to see other rain measurements)
** Current wind speed in m/s (hover to see current wind gust speed)